sensor_id;sensor_type;location;lat;lon;timestamp;P1;durP1;ratioP1;P2;durP2;ratioP2
52126;SDS011;38120;53.176;6.614;2023-07-20T00:02:19;5.95;;;3.22;;
52126;SDS011;38120;53.176;6.614;2023-07-20T00:04:45;5.40;;;2.97;;
52126;SDS011;38120;53.176;6.614;2023-07-20T00:07:11;4.68;;;3.05;;
52126;SDS011;38120;53.176;6.614;2023-07-20T00:09:36;5.93;;;3.03;;
52126;SDS011;38120;53.176;6.614;2023-07-20T00:12:02;6.13;;;2.65;;
52126;SDS011;38120;53.176;6.614;2023-07-20T00:14:28;4.28;;;2.60;;
52126;SDS011;38120;53.176;6.614;2023-07-20T00:16:54;4.50;;;2.72;;
52126;SDS011;38120;53.176;6.614;2023-07-20T00:19:25;5.93;;;2.97;;
52126;SDS011;38120;53.176;6.614;2023-07-20T00:21:52;5.05;;;2.95;;
52126;SDS011;38120;53.176;6.614;2023-07-20T00:24:18;6.20;;;2.70;;
52126;SDS011;38120;53.176;6.614;2023-07-20T00:26:44;7.22;;;2.80;;
52126;SDS011;38120;53.176;6.614;2023-07-20T00:29:10;4.30;;;2.20;;
52126;SDS011;38120;53.176;6.614;2023-07-20T00:31:36;5.13;;;2.90;;
52126;SDS011;38120;53.176;6.614;2023-07-20T00:34:05;6.28;;;2.42;;
52126;SDS011;38120;53.176;6.614;2023-07-20T00:36:31;6.35;;;2.72;;
52126;SDS011;38120;53.176;6.614;2023-07-20T00:38:57;5.70;;;2.75;;
52126;SDS011;38120;53.176;6.614;2023-07-20T00:41:22;7.35;;;3.33;;
52126;SDS011;38120;53.176;6.614;2023-07-20T00:43:48;4.65;;;2.63;;
52126;SDS011;38120;53.176;6.614;2023-07-20T00:46:15;5.32;;;2.83;;
52126;SDS011;38120;53.176;6.614;2023-07-20T00:48:41;3.63;;;2.25;;
52126;SDS011;38120;53.176;6.614;2023-07-20T00:51:07;4.20;;;2.38;;
52126;SDS011;38120;53.176;6.614;2023-07-20T00:53:34;4.43;;;2.55;;
52126;SDS011;38120;53.176;6.614;2023-07-20T00:55:59;5.72;;;3.17;;
52126;SDS011;38120;53.176;6.614;2023-07-20T00:58:25;4.53;;;2.50;;
52126;SDS011;38120;53.176;6.614;2023-07-20T01:00:51;5.22;;;2.35;;
52126;SDS011;38120;53.176;6.614;2023-07-20T01:03:17;4.18;;;2.25;;
52126;SDS011;38120;53.176;6.614;2023-07-20T01:08:38;4.63;;;2.33;;
52126;SDS011;38120;53.176;6.614;2023-07-20T01:14:02;4.40;;;2.38;;
52126;SDS011;38120;53.176;6.614;2023-07-20T01:16:28;6.25;;;2.30;;
52126;SDS011;38120;53.176;6.614;2023-07-20T01:18:54;4.00;;;2.55;;
52126;SDS011;38120;53.176;6.614;2023-07-20T01:21:24;5.00;;;3.03;;
52126;SDS011;38120;53.176;6.614;2023-07-20T01:24:01;5.30;;;3.03;;
52126;SDS011;38120;53.176;6.614;2023-07-20T01:27:12;4.88;;;2.78;;
52126;SDS011;38120;53.176;6.614;2023-07-20T01:32:33;5.00;;;2.45;;
52126;SDS011;38120;53.176;6.614;2023-07-20T01:35:01;5.07;;;2.70;;
52126;SDS011;38120;53.176;6.614;2023-07-20T01:37:30;4.85;;;3.05;;
52126;SDS011;38120;53.176;6.614;2023-07-20T01:39:57;4.90;;;2.80;;
52126;SDS011;38120;53.176;6.614;2023-07-20T01:42:24;5.18;;;2.83;;
52126;SDS011;38120;53.176;6.614;2023-07-20T01:47:19;4.43;;;2.92;;
52126;SDS011;38120;53.176;6.614;2023-07-20T01:49:45;5.15;;;3.22;;
52126;SDS011;38120;53.176;6.614;2023-07-20T01:52:11;4.28;;;2.65;;
52126;SDS011;38120;53.176;6.614;2023-07-20T01:54:36;8.02;;;3.00;;
52126;SDS011;38120;53.176;6.614;2023-07-20T01:57:02;3.90;;;2.80;;
52126;SDS011;38120;53.176;6.614;2023-07-20T01:59:29;5.30;;;2.90;;
52126;SDS011;38120;53.176;6.614;2023-07-20T02:01:54;5.80;;;3.30;;
52126;SDS011;38120;53.176;6.614;2023-07-20T02:04:20;5.93;;;3.20;;
52126;SDS011;38120;53.176;6.614;2023-07-20T02:06:46;4.00;;;2.63;;
52126;SDS011;38120;53.176;6.614;2023-07-20T02:09:11;4.73;;;2.80;;
52126;SDS011;38120;53.176;6.614;2023-07-20T02:11:37;5.70;;;3.10;;
52126;SDS011;38120;53.176;6.614;2023-07-20T02:14:02;6.57;;;2.83;;
52126;SDS011;38120;53.176;6.614;2023-07-20T02:16:28;6.00;;;3.70;;
52126;SDS011;38120;53.176;6.614;2023-07-20T02:18:54;3.90;;;2.70;;
52126;SDS011;38120;53.176;6.614;2023-07-20T02:21:22;4.78;;;2.88;;
52126;SDS011;38120;53.176;6.614;2023-07-20T02:23:48;4.38;;;3.08;;
52126;SDS011;38120;53.176;6.614;2023-07-20T02:26:13;4.43;;;3.03;;
52126;SDS011;38120;53.176;6.614;2023-07-20T02:28:40;4.57;;;2.88;;
52126;SDS011;38120;53.176;6.614;2023-07-20T02:31:06;5.38;;;3.15;;
52126;SDS011;38120;53.176;6.614;2023-07-20T02:33:32;3.67;;;2.65;;
52126;SDS011;38120;53.176;6.614;2023-07-20T02:35:58;6.00;;;3.05;;
52126;SDS011;38120;53.176;6.614;2023-07-20T02:38:23;4.75;;;3.05;;
52126;SDS011;38120;53.176;6.614;2023-07-20T02:40:49;5.25;;;3.00;;
52126;SDS011;38120;53.176;6.614;2023-07-20T02:43:16;5.90;;;2.85;;
52126;SDS011;38120;53.176;6.614;2023-07-20T02:45:42;7.72;;;3.58;;
52126;SDS011;38120;53.176;6.614;2023-07-20T02:48:08;4.60;;;3.10;;
52126;SDS011;38120;53.176;6.614;2023-07-20T02:50:34;5.57;;;3.55;;
52126;SDS011;38120;53.176;6.614;2023-07-20T02:53:00;5.57;;;3.10;;
52126;SDS011;38120;53.176;6.614;2023-07-20T02:55:26;4.80;;;3.08;;
52126;SDS011;38120;53.176;6.614;2023-07-20T02:57:52;5.07;;;2.92;;
52126;SDS011;38120;53.176;6.614;2023-07-20T03:00:17;5.40;;;3.60;;
52126;SDS011;38120;53.176;6.614;2023-07-20T03:05:13;5.90;;;3.17;;
52126;SDS011;38120;53.176;6.614;2023-07-20T03:10:05;6.55;;;3.30;;
52126;SDS011;38120;53.176;6.614;2023-07-20T03:12:34;5.93;;;3.63;;
52126;SDS011;38120;53.176;6.614;2023-07-20T03:15:00;7.60;;;3.45;;
52126;SDS011;38120;53.176;6.614;2023-07-20T03:17:26;6.57;;;3.30;;
52126;SDS011;38120;53.176;6.614;2023-07-20T03:19:52;6.20;;;3.47;;
52126;SDS011;38120;53.176;6.614;2023-07-20T03:22:18;6.10;;;3.20;;
52126;SDS011;38120;53.176;6.614;2023-07-20T03:24:43;6.80;;;3.47;;
52126;SDS011;38120;53.176;6.614;2023-07-20T03:27:09;9.10;;;3.78;;
52126;SDS011;38120;53.176;6.614;2023-07-20T03:29:35;5.65;;;3.35;;
52126;SDS011;38120;53.176;6.614;2023-07-20T03:32:00;5.60;;;3.10;;
52126;SDS011;38120;53.176;6.614;2023-07-20T03:34:26;6.50;;;3.53;;
52126;SDS011;38120;53.176;6.614;2023-07-20T03:36:52;7.25;;;3.33;;
52126;SDS011;38120;53.176;6.614;2023-07-20T03:39:17;4.93;;;2.57;;
52126;SDS011;38120;53.176;6.614;2023-07-20T03:41:43;4.68;;;3.03;;
52126;SDS011;38120;53.176;6.614;2023-07-20T03:44:08;4.83;;;2.90;;
52126;SDS011;38120;53.176;6.614;2023-07-20T03:46:34;4.07;;;2.80;;
52126;SDS011;38120;53.176;6.614;2023-07-20T03:49:00;5.17;;;3.07;;
52126;SDS011;38120;53.176;6.614;2023-07-20T03:51:26;4.20;;;2.80;;
52126;SDS011;38120;53.176;6.614;2023-07-20T03:53:51;6.80;;;3.17;;
52126;SDS011;38120;53.176;6.614;2023-07-20T03:56:17;6.47;;;3.13;;
52126;SDS011;38120;53.176;6.614;2023-07-20T03:58:43;5.03;;;2.88;;
52126;SDS011;38120;53.176;6.614;2023-07-20T04:01:08;5.67;;;2.70;;
52126;SDS011;38120;53.176;6.614;2023-07-20T04:03:35;4.72;;;3.00;;
52126;SDS011;38120;53.176;6.614;2023-07-20T04:06:01;5.78;;;2.90;;
52126;SDS011;38120;53.176;6.614;2023-07-20T04:08:27;5.30;;;3.00;;
52126;SDS011;38120;53.176;6.614;2023-07-20T04:10:53;4.90;;;2.77;;
52126;SDS011;38120;53.176;6.614;2023-07-20T04:13:18;4.33;;;2.60;;
52126;SDS011;38120;53.176;6.614;2023-07-20T04:15:44;5.35;;;3.13;;
52126;SDS011;38120;53.176;6.614;2023-07-20T04:18:10;7.95;;;3.47;;
52126;SDS011;38120;53.176;6.614;2023-07-20T04:20:35;5.70;;;3.13;;
52126;SDS011;38120;53.176;6.614;2023-07-20T04:23:01;5.53;;;3.10;;
52126;SDS011;38120;53.176;6.614;2023-07-20T04:25:27;5.93;;;3.10;;
52126;SDS011;38120;53.176;6.614;2023-07-20T04:27:53;5.10;;;2.97;;
52126;SDS011;38120;53.176;6.614;2023-07-20T04:30:18;10.48;;;3.17;;
52126;SDS011;38120;53.176;6.614;2023-07-20T04:32:45;5.57;;;3.13;;
52126;SDS011;38120;53.176;6.614;2023-07-20T04:35:16;5.57;;;3.00;;
52126;SDS011;38120;53.176;6.614;2023-07-20T04:38:00;5.47;;;3.03;;
52126;SDS011;38120;53.176;6.614;2023-07-20T04:40:26;4.23;;;2.73;;
52126;SDS011;38120;53.176;6.614;2023-07-20T04:42:52;4.77;;;2.87;;
52126;SDS011;38120;53.176;6.614;2023-07-20T04:45:17;6.37;;;3.00;;
52126;SDS011;38120;53.176;6.614;2023-07-20T04:50:09;7.40;;;3.03;;
52126;SDS011;38120;53.176;6.614;2023-07-20T04:52:35;4.88;;;2.97;;
52126;SDS011;38120;53.176;6.614;2023-07-20T04:55:01;6.83;;;3.90;;
52126;SDS011;38120;53.176;6.614;2023-07-20T04:57:29;5.35;;;3.00;;
52126;SDS011;38120;53.176;6.614;2023-07-20T04:59:54;6.57;;;3.27;;
52126;SDS011;38120;53.176;6.614;2023-07-20T05:02:20;5.03;;;2.90;;
52126;SDS011;38120;53.176;6.614;2023-07-20T05:04:46;5.63;;;2.53;;
52126;SDS011;38120;53.176;6.614;2023-07-20T05:07:11;6.15;;;2.97;;
52126;SDS011;38120;53.176;6.614;2023-07-20T05:09:37;4.67;;;3.03;;
52126;SDS011;38120;53.176;6.614;2023-07-20T05:12:03;7.90;;;3.33;;
52126;SDS011;38120;53.176;6.614;2023-07-20T05:14:29;4.50;;;2.13;;
52126;SDS011;38120;53.176;6.614;2023-07-20T05:16:54;4.80;;;3.07;;
52126;SDS011;38120;53.176;6.614;2023-07-20T05:19:20;4.45;;;2.78;;
52126;SDS011;38120;53.176;6.614;2023-07-20T05:21:46;5.72;;;2.80;;
52126;SDS011;38120;53.176;6.614;2023-07-20T05:24:12;4.83;;;2.73;;
52126;SDS011;38120;53.176;6.614;2023-07-20T05:26:37;6.47;;;3.27;;
52126;SDS011;38120;53.176;6.614;2023-07-20T05:29:03;4.53;;;2.58;;
52126;SDS011;38120;53.176;6.614;2023-07-20T05:31:29;4.43;;;2.28;;
52126;SDS011;38120;53.176;6.614;2023-07-20T05:33:56;4.97;;;2.22;;
52126;SDS011;38120;53.176;6.614;2023-07-20T05:36:22;4.63;;;2.72;;
52126;SDS011;38120;53.176;6.614;2023-07-20T05:38:49;5.25;;;2.83;;
52126;SDS011;38120;53.176;6.614;2023-07-20T05:41:15;5.15;;;2.50;;
52126;SDS011;38120;53.176;6.614;2023-07-20T05:43:40;3.38;;;2.20;;
52126;SDS011;38120;53.176;6.614;2023-07-20T05:46:07;5.35;;;2.58;;
52126;SDS011;38120;53.176;6.614;2023-07-20T05:48:33;8.90;;;2.77;;
52126;SDS011;38120;53.176;6.614;2023-07-20T05:50:58;4.82;;;2.72;;
52126;SDS011;38120;53.176;6.614;2023-07-20T05:53:24;4.68;;;2.88;;
52126;SDS011;38120;53.176;6.614;2023-07-20T05:55:53;5.55;;;2.47;;
52126;SDS011;38120;53.176;6.614;2023-07-20T05:58:19;4.55;;;2.47;;
52126;SDS011;38120;53.176;6.614;2023-07-20T06:00:49;5.00;;;3.15;;
52126;SDS011;38120;53.176;6.614;2023-07-20T06:03:15;4.75;;;2.45;;
52126;SDS011;38120;53.176;6.614;2023-07-20T06:05:43;6.22;;;2.10;;
52126;SDS011;38120;53.176;6.614;2023-07-20T06:10:35;3.95;;;2.13;;
52126;SDS011;38120;53.176;6.614;2023-07-20T06:13:01;5.63;;;1.83;;
52126;SDS011;38120;53.176;6.614;2023-07-20T06:15:28;5.17;;;2.40;;
52126;SDS011;38120;53.176;6.614;2023-07-20T06:17:56;5.68;;;2.17;;
52126;SDS011;38120;53.176;6.614;2023-07-20T06:20:24;3.83;;;2.15;;
52126;SDS011;38120;53.176;6.614;2023-07-20T06:22:50;6.18;;;2.25;;
52126;SDS011;38120;53.176;6.614;2023-07-20T06:25:15;5.17;;;1.73;;
52126;SDS011;38120;53.176;6.614;2023-07-20T06:27:42;4.00;;;2.03;;
52126;SDS011;38120;53.176;6.614;2023-07-20T06:30:09;4.20;;;2.38;;
52126;SDS011;38120;53.176;6.614;2023-07-20T06:32:35;4.53;;;1.92;;
52126;SDS011;38120;53.176;6.614;2023-07-20T06:35:01;3.45;;;1.50;;
52126;SDS011;38120;53.176;6.614;2023-07-20T06:37:27;4.68;;;1.80;;
52126;SDS011;38120;53.176;6.614;2023-07-20T06:39:52;5.63;;;1.30;;
52126;SDS011;38120;53.176;6.614;2023-07-20T06:42:18;4.30;;;1.60;;
52126;SDS011;38120;53.176;6.614;2023-07-20T06:44:43;4.88;;;1.83;;
52126;SDS011;38120;53.176;6.614;2023-07-20T06:47:10;3.35;;;1.48;;
52126;SDS011;38120;53.176;6.614;2023-07-20T06:49:36;4.15;;;1.50;;
52126;SDS011;38120;53.176;6.614;2023-07-20T06:52:01;3.33;;;1.40;;
52126;SDS011;38120;53.176;6.614;2023-07-20T06:54:27;4.72;;;1.27;;
52126;SDS011;38120;53.176;6.614;2023-07-20T06:56:53;4.22;;;1.52;;
52126;SDS011;38120;53.176;6.614;2023-07-20T06:59:18;3.90;;;1.10;;
52126;SDS011;38120;53.176;6.614;2023-07-20T07:01:44;4.25;;;1.33;;
52126;SDS011;38120;53.176;6.614;2023-07-20T07:04:10;3.90;;;1.48;;
52126;SDS011;38120;53.176;6.614;2023-07-20T07:06:36;5.47;;;1.38;;
52126;SDS011;38120;53.176;6.614;2023-07-20T07:09:02;3.33;;;1.38;;
52126;SDS011;38120;53.176;6.614;2023-07-20T07:13:54;8.00;;;1.60;;
52126;SDS011;38120;53.176;6.614;2023-07-20T07:16:20;5.25;;;1.48;;
52126;SDS011;38120;53.176;6.614;2023-07-20T07:18:46;2.97;;;1.20;;
52126;SDS011;38120;53.176;6.614;2023-07-20T07:21:11;6.63;;;1.40;;
52126;SDS011;38120;53.176;6.614;2023-07-20T07:23:38;5.28;;;1.60;;
52126;SDS011;38120;53.176;6.614;2023-07-20T07:26:10;3.97;;;1.75;;
52126;SDS011;38120;53.176;6.614;2023-07-20T07:28:36;4.03;;;1.38;;
52126;SDS011;38120;53.176;6.614;2023-07-20T07:31:04;5.85;;;1.80;;
52126;SDS011;38120;53.176;6.614;2023-07-20T07:33:33;4.60;;;1.65;;
52126;SDS011;38120;53.176;6.614;2023-07-20T07:35:59;4.00;;;1.50;;
52126;SDS011;38120;53.176;6.614;2023-07-20T07:38:25;4.40;;;1.80;;
52126;SDS011;38120;53.176;6.614;2023-07-20T07:40:51;3.22;;;1.80;;
52126;SDS011;38120;53.176;6.614;2023-07-20T07:43:16;4.47;;;1.48;;
52126;SDS011;38120;53.176;6.614;2023-07-20T07:45:42;5.85;;;2.78;;
52126;SDS011;38120;53.176;6.614;2023-07-20T07:48:08;7.85;;;1.70;;
52126;SDS011;38120;53.176;6.614;2023-07-20T07:50:36;4.82;;;1.77;;
52126;SDS011;38120;53.176;6.614;2023-07-20T07:53:02;6.22;;;1.75;;
52126;SDS011;38120;53.176;6.614;2023-07-20T07:55:28;6.82;;;1.52;;
52126;SDS011;38120;53.176;6.614;2023-07-20T07:57:54;5.18;;;1.90;;
52126;SDS011;38120;53.176;6.614;2023-07-20T08:00:19;7.78;;;2.13;;
52126;SDS011;38120;53.176;6.614;2023-07-20T08:02:45;5.75;;;1.95;;
52126;SDS011;38120;53.176;6.614;2023-07-20T08:05:13;5.65;;;1.60;;
52126;SDS011;38120;53.176;6.614;2023-07-20T08:07:39;6.30;;;1.45;;
52126;SDS011;38120;53.176;6.614;2023-07-20T08:10:05;11.00;;;1.77;;
52126;SDS011;38120;53.176;6.614;2023-07-20T08:12:32;8.05;;;1.80;;
52126;SDS011;38120;53.176;6.614;2023-07-20T08:14:57;5.22;;;1.75;;
52126;SDS011;38120;53.176;6.614;2023-07-20T08:17:23;4.45;;;1.42;;
52126;SDS011;38120;53.176;6.614;2023-07-20T08:19:49;3.72;;;1.40;;
52126;SDS011;38120;53.176;6.614;2023-07-20T08:22:15;6.53;;;1.45;;
52126;SDS011;38120;53.176;6.614;2023-07-20T08:24:41;6.68;;;1.73;;
52126;SDS011;38120;53.176;6.614;2023-07-20T08:27:08;7.55;;;1.50;;
52126;SDS011;38120;53.176;6.614;2023-07-20T08:29:35;6.30;;;1.45;;
52126;SDS011;38120;53.176;6.614;2023-07-20T08:34:27;3.95;;;1.80;;
52126;SDS011;38120;53.176;6.614;2023-07-20T08:36:52;4.10;;;1.13;;
52126;SDS011;38120;53.176;6.614;2023-07-20T08:39:18;3.20;;;1.55;;
52126;SDS011;38120;53.176;6.614;2023-07-20T08:41:44;3.75;;;1.40;;
52126;SDS011;38120;53.176;6.614;2023-07-20T08:44:12;5.25;;;1.65;;
52126;SDS011;38120;53.176;6.614;2023-07-20T08:46:38;3.28;;;1.30;;
52126;SDS011;38120;53.176;6.614;2023-07-20T08:49:05;3.78;;;1.15;;
52126;SDS011;38120;53.176;6.614;2023-07-20T08:51:31;4.15;;;1.73;;
52126;SDS011;38120;53.176;6.614;2023-07-20T08:53:59;3.10;;;1.00;;
52126;SDS011;38120;53.176;6.614;2023-07-20T08:56:25;3.80;;;0.90;;
52126;SDS011;38120;53.176;6.614;2023-07-20T08:58:51;4.53;;;1.10;;
52126;SDS011;38120;53.176;6.614;2023-07-20T09:01:21;3.42;;;0.98;;
52126;SDS011;38120;53.176;6.614;2023-07-20T09:03:48;3.15;;;0.80;;
52126;SDS011;38120;53.176;6.614;2023-07-20T09:06:16;1.80;;;0.60;;
52126;SDS011;38120;53.176;6.614;2023-07-20T09:08:42;2.00;;;0.65;;
52126;SDS011;38120;53.176;6.614;2023-07-20T09:11:11;6.20;;;2.45;;
52126;SDS011;38120;53.176;6.614;2023-07-20T09:13:38;7.45;;;1.20;;
52126;SDS011;38120;53.176;6.614;2023-07-20T09:16:04;3.85;;;0.95;;
52126;SDS011;38120;53.176;6.614;2023-07-20T09:18:31;3.05;;;0.80;;
52126;SDS011;38120;53.176;6.614;2023-07-20T09:21:04;1.35;;;0.82;;
52126;SDS011;38120;53.176;6.614;2023-07-20T09:23:34;3.22;;;0.80;;
52126;SDS011;38120;53.176;6.614;2023-07-20T09:26:13;2.47;;;0.75;;
52126;SDS011;38120;53.176;6.614;2023-07-20T09:28:47;5.25;;;0.82;;
52126;SDS011;38120;53.176;6.614;2023-07-20T09:31:22;5.93;;;1.27;;
52126;SDS011;38120;53.176;6.614;2023-07-20T09:33:48;2.30;;;0.77;;
52126;SDS011;38120;53.176;6.614;2023-07-20T09:36:16;2.65;;;0.80;;
52126;SDS011;38120;53.176;6.614;2023-07-20T09:38:42;1.52;;;0.47;;
52126;SDS011;38120;53.176;6.614;2023-07-20T09:41:12;2.17;;;0.70;;
52126;SDS011;38120;53.176;6.614;2023-07-20T09:43:39;2.97;;;0.60;;
52126;SDS011;38120;53.176;6.614;2023-07-20T09:48:31;2.08;;;1.13;;
52126;SDS011;38120;53.176;6.614;2023-07-20T09:50:57;3.22;;;0.65;;
52126;SDS011;38120;53.176;6.614;2023-07-20T09:53:23;4.38;;;0.95;;
52126;SDS011;38120;53.176;6.614;2023-07-20T09:55:50;4.43;;;1.23;;
52126;SDS011;38120;53.176;6.614;2023-07-20T09:58:18;1.65;;;0.65;;
52126;SDS011;38120;53.176;6.614;2023-07-20T10:00:45;3.97;;;0.70;;
52126;SDS011;38120;53.176;6.614;2023-07-20T10:03:22;1.85;;;0.60;;
52126;SDS011;38120;53.176;6.614;2023-07-20T10:05:57;1.95;;;0.85;;
52126;SDS011;38120;53.176;6.614;2023-07-20T10:08:38;1.45;;;0.68;;
52126;SDS011;38120;53.176;6.614;2023-07-20T10:11:05;1.92;;;0.70;;
52126;SDS011;38120;53.176;6.614;2023-07-20T10:13:35;2.75;;;0.70;;
52126;SDS011;38120;53.176;6.614;2023-07-20T10:16:06;4.32;;;1.30;;
52126;SDS011;38120;53.176;6.614;2023-07-20T10:21:23;1.80;;;0.70;;
52126;SDS011;38120;53.176;6.614;2023-07-20T10:23:49;1.92;;;0.88;;
52126;SDS011;38120;53.176;6.614;2023-07-20T10:26:15;3.35;;;0.85;;
52126;SDS011;38120;53.176;6.614;2023-07-20T10:28:41;1.90;;;0.70;;
52126;SDS011;38120;53.176;6.614;2023-07-20T10:31:07;3.30;;;1.00;;
52126;SDS011;38120;53.176;6.614;2023-07-20T10:33:34;3.78;;;0.63;;
52126;SDS011;38120;53.176;6.614;2023-07-20T10:36:02;2.75;;;0.90;;
52126;SDS011;38120;53.176;6.614;2023-07-20T10:41:29;3.63;;;0.80;;
52126;SDS011;38120;53.176;6.614;2023-07-20T10:44:03;2.13;;;0.68;;
52126;SDS011;38120;53.176;6.614;2023-07-20T10:49:04;2.25;;;0.82;;
52126;SDS011;38120;53.176;6.614;2023-07-20T10:51:47;3.90;;;0.73;;
52126;SDS011;38120;53.176;6.614;2023-07-20T10:56:43;3.70;;;0.80;;
52126;SDS011;38120;53.176;6.614;2023-07-20T10:59:20;2.30;;;0.80;;
52126;SDS011;38120;53.176;6.614;2023-07-20T11:02:05;6.13;;;1.05;;
52126;SDS011;38120;53.176;6.614;2023-07-20T11:07:03;2.55;;;0.60;;
52126;SDS011;38120;53.176;6.614;2023-07-20T11:09:33;2.30;;;1.10;;
52126;SDS011;38120;53.176;6.614;2023-07-20T11:12:13;3.30;;;1.27;;
52126;SDS011;38120;53.176;6.614;2023-07-20T11:14:41;3.25;;;0.90;;
52126;SDS011;38120;53.176;6.614;2023-07-20T11:17:11;4.22;;;1.05;;
52126;SDS011;38120;53.176;6.614;2023-07-20T11:19:41;2.40;;;0.93;;
52126;SDS011;38120;53.176;6.614;2023-07-20T11:24:33;3.55;;;0.77;;
52126;SDS011;38120;53.176;6.614;2023-07-20T11:26:59;2.40;;;1.25;;
52126;SDS011;38120;53.176;6.614;2023-07-20T11:29:26;3.22;;;1.02;;
52126;SDS011;38120;53.176;6.614;2023-07-20T11:31:52;7.32;;;1.08;;
52126;SDS011;38120;53.176;6.614;2023-07-20T11:34:19;5.10;;;0.98;;
52126;SDS011;38120;53.176;6.614;2023-07-20T11:36:47;3.28;;;0.73;;
52126;SDS011;38120;53.176;6.614;2023-07-20T11:39:14;2.38;;;0.70;;
52126;SDS011;38120;53.176;6.614;2023-07-20T11:44:16;2.45;;;0.70;;
52126;SDS011;38120;53.176;6.614;2023-07-20T11:46:53;2.30;;;0.80;;
52126;SDS011;38120;53.176;6.614;2023-07-20T11:49:35;2.58;;;0.90;;
52126;SDS011;38120;53.176;6.614;2023-07-20T11:52:07;2.03;;;1.05;;
52126;SDS011;38120;53.176;6.614;2023-07-20T11:54:35;1.70;;;0.60;;
52126;SDS011;38120;53.176;6.614;2023-07-20T11:57:02;3.20;;;1.30;;
52126;SDS011;38120;53.176;6.614;2023-07-20T11:59:30;4.00;;;1.17;;
52126;SDS011;38120;53.176;6.614;2023-07-20T12:01:56;2.63;;;1.00;;
52126;SDS011;38120;53.176;6.614;2023-07-20T12:04:23;2.33;;;0.95;;
52126;SDS011;38120;53.176;6.614;2023-07-20T12:06:49;2.95;;;1.38;;
52126;SDS011;38120;53.176;6.614;2023-07-20T12:09:18;4.88;;;0.90;;
52126;SDS011;38120;53.176;6.614;2023-07-20T12:11:44;2.65;;;0.88;;
52126;SDS011;38120;53.176;6.614;2023-07-20T12:14:12;5.40;;;0.90;;
52126;SDS011;38120;53.176;6.614;2023-07-20T12:16:38;4.15;;;1.13;;
52126;SDS011;38120;53.176;6.614;2023-07-20T12:19:04;2.92;;;0.70;;
52126;SDS011;38120;53.176;6.614;2023-07-20T12:21:35;2.17;;;0.75;;
52126;SDS011;38120;53.176;6.614;2023-07-20T12:24:08;1.77;;;0.60;;
52126;SDS011;38120;53.176;6.614;2023-07-20T12:26:35;2.78;;;0.90;;
52126;SDS011;38120;53.176;6.614;2023-07-20T12:29:01;2.13;;;0.85;;
52126;SDS011;38120;53.176;6.614;2023-07-20T12:31:29;1.63;;;0.80;;
52126;SDS011;38120;53.176;6.614;2023-07-20T12:33:56;3.85;;;0.95;;
52126;SDS011;38120;53.176;6.614;2023-07-20T12:36:23;4.22;;;1.10;;
52126;SDS011;38120;53.176;6.614;2023-07-20T12:38:49;3.45;;;0.80;;
52126;SDS011;38120;53.176;6.614;2023-07-20T12:41:15;2.78;;;0.70;;
52126;SDS011;38120;53.176;6.614;2023-07-20T12:43:41;4.18;;;1.00;;
52126;SDS011;38120;53.176;6.614;2023-07-20T12:46:07;4.38;;;0.98;;
52126;SDS011;38120;53.176;6.614;2023-07-20T12:51:02;3.15;;;0.73;;
52126;SDS011;38120;53.176;6.614;2023-07-20T12:53:28;1.48;;;0.50;;
52126;SDS011;38120;53.176;6.614;2023-07-20T12:55:54;2.60;;;1.15;;
52126;SDS011;38120;53.176;6.614;2023-07-20T12:58:20;1.60;;;0.77;;
52126;SDS011;38120;53.176;6.614;2023-07-20T13:00:45;3.53;;;1.10;;
52126;SDS011;38120;53.176;6.614;2023-07-20T13:03:11;4.88;;;1.42;;
52126;SDS011;38120;53.176;6.614;2023-07-20T13:05:37;5.07;;;1.60;;
52126;SDS011;38120;53.176;6.614;2023-07-20T13:08:02;4.82;;;0.93;;
52126;SDS011;38120;53.176;6.614;2023-07-20T13:10:28;3.33;;;1.08;;
52126;SDS011;38120;53.176;6.614;2023-07-20T13:12:55;3.35;;;1.52;;
52126;SDS011;38120;53.176;6.614;2023-07-20T13:15:24;2.58;;;1.20;;
52126;SDS011;38120;53.176;6.614;2023-07-20T13:17:56;3.80;;;1.02;;
52126;SDS011;38120;53.176;6.614;2023-07-20T13:20:23;2.25;;;0.85;;
52126;SDS011;38120;53.176;6.614;2023-07-20T13:22:50;3.65;;;1.17;;
52126;SDS011;38120;53.176;6.614;2023-07-20T13:25:16;3.85;;;1.00;;
52126;SDS011;38120;53.176;6.614;2023-07-20T13:27:42;2.33;;;0.90;;
52126;SDS011;38120;53.176;6.614;2023-07-20T13:30:07;3.33;;;0.80;;
52126;SDS011;38120;53.176;6.614;2023-07-20T13:32:36;1.85;;;0.77;;
52126;SDS011;38120;53.176;6.614;2023-07-20T13:35:02;5.55;;;0.75;;
52126;SDS011;38120;53.176;6.614;2023-07-20T13:37:31;5.03;;;1.33;;
52126;SDS011;38120;53.176;6.614;2023-07-20T13:39:58;4.47;;;1.20;;
52126;SDS011;38120;53.176;6.614;2023-07-20T13:42:24;4.82;;;0.95;;
52126;SDS011;38120;53.176;6.614;2023-07-20T13:44:51;3.45;;;0.80;;
52126;SDS011;38120;53.176;6.614;2023-07-20T13:47:17;3.28;;;1.10;;
52126;SDS011;38120;53.176;6.614;2023-07-20T13:52:09;3.10;;;0.93;;
52126;SDS011;38120;53.176;6.614;2023-07-20T13:54:34;3.45;;;0.90;;
52126;SDS011;38120;53.176;6.614;2023-07-20T13:57:00;1.63;;;0.77;;
52126;SDS011;38120;53.176;6.614;2023-07-20T13:59:26;4.15;;;0.93;;
52126;SDS011;38120;53.176;6.614;2023-07-20T14:01:51;2.13;;;0.75;;
52126;SDS011;38120;53.176;6.614;2023-07-20T14:04:17;2.50;;;0.80;;
52126;SDS011;38120;53.176;6.614;2023-07-20T14:06:43;3.05;;;0.98;;
52126;SDS011;38120;53.176;6.614;2023-07-20T14:09:09;3.83;;;1.80;;
52126;SDS011;38120;53.176;6.614;2023-07-20T14:11:35;1.95;;;0.73;;
52126;SDS011;38120;53.176;6.614;2023-07-20T14:14:01;4.55;;;1.10;;
52126;SDS011;38120;53.176;6.614;2023-07-20T14:16:26;2.35;;;0.60;;
52126;SDS011;38120;53.176;6.614;2023-07-20T14:18:52;1.75;;;0.63;;
52126;SDS011;38120;53.176;6.614;2023-07-20T14:21:19;2.95;;;0.88;;
52126;SDS011;38120;53.176;6.614;2023-07-20T14:23:50;2.92;;;0.93;;
52126;SDS011;38120;53.176;6.614;2023-07-20T14:26:17;1.25;;;0.80;;
52126;SDS011;38120;53.176;6.614;2023-07-20T14:28:42;2.47;;;0.90;;
52126;SDS011;38120;53.176;6.614;2023-07-20T14:31:08;1.95;;;0.75;;
52126;SDS011;38120;53.176;6.614;2023-07-20T14:33:34;2.15;;;0.70;;
52126;SDS011;38120;53.176;6.614;2023-07-20T14:36:00;3.47;;;1.00;;
52126;SDS011;38120;53.176;6.614;2023-07-20T14:38:35;2.90;;;0.88;;
52126;SDS011;38120;53.176;6.614;2023-07-20T14:41:01;1.83;;;0.65;;
52126;SDS011;38120;53.176;6.614;2023-07-20T14:45:53;2.55;;;0.77;;
52126;SDS011;38120;53.176;6.614;2023-07-20T14:48:24;7.32;;;1.52;;
52126;SDS011;38120;53.176;6.614;2023-07-20T14:50:52;2.17;;;0.90;;
52126;SDS011;38120;53.176;6.614;2023-07-20T14:53:17;3.00;;;1.08;;
52126;SDS011;38120;53.176;6.614;2023-07-20T14:55:43;2.10;;;0.63;;
52126;SDS011;38120;53.176;6.614;2023-07-20T15:00:35;4.65;;;0.90;;
52126;SDS011;38120;53.176;6.614;2023-07-20T15:03:00;3.97;;;0.63;;
52126;SDS011;38120;53.176;6.614;2023-07-20T15:05:26;2.75;;;0.93;;
52126;SDS011;38120;53.176;6.614;2023-07-20T15:07:52;1.92;;;0.80;;
52126;SDS011;38120;53.176;6.614;2023-07-20T15:10:19;2.15;;;0.82;;
52126;SDS011;38120;53.176;6.614;2023-07-20T15:12:45;2.97;;;0.93;;
52126;SDS011;38120;53.176;6.614;2023-07-20T15:15:11;4.28;;;1.08;;
52126;SDS011;38120;53.176;6.614;2023-07-20T15:17:38;2.45;;;0.98;;
52126;SDS011;38120;53.176;6.614;2023-07-20T15:20:05;4.05;;;1.42;;
52126;SDS011;38120;53.176;6.614;2023-07-20T15:22:33;2.28;;;1.13;;
52126;SDS011;38120;53.176;6.614;2023-07-20T15:25:01;3.20;;;1.00;;
52126;SDS011;38120;53.176;6.614;2023-07-20T15:27:28;5.10;;;1.20;;
52126;SDS011;38120;53.176;6.614;2023-07-20T15:29:53;2.60;;;1.10;;
52126;SDS011;38120;53.176;6.614;2023-07-20T15:32:19;5.07;;;2.15;;
52126;SDS011;38120;53.176;6.614;2023-07-20T15:34:45;5.07;;;0.93;;
52126;SDS011;38120;53.176;6.614;2023-07-20T15:37:11;4.18;;;1.42;;
52126;SDS011;38120;53.176;6.614;2023-07-20T15:39:37;3.80;;;1.23;;
52126;SDS011;38120;53.176;6.614;2023-07-20T15:42:03;4.50;;;0.98;;
52126;SDS011;38120;53.176;6.614;2023-07-20T15:44:30;3.42;;;0.90;;